Time;durP1;ratioP1;P1;durP2;ratioP2;P2;SDS_P1;SDS_P2;PMS_P1;PMS_P2;Temp;Humidity;BMP_temperature;BMP_pressure;BME280_temperature;BME280_humidity;BME280_pressure;Samples;Min_cycle;Max_cycle;Signal;HPM_P1;HPM_P2
2022/02/18 00:00:37;;;;;;;53.33;29.00;;;;;;;;;;4448813;32;20369;-57
2022/02/18 00:03:03;;;;;;;75.80;34.97;;;;;;;;;;4446344;32;20252;-56
2022/02/18 00:05:28;;;;;;;90.73;40.67;;;;;;;;;;4464203;32;20715;-55
2022/02/18 00:07:54;;;;;;;78.87;39.87;;;;;;;;;;4464201;32;20614;-57
2022/02/18 00:10:19;;;;;;;81.33;38.53;;;;;;;;;;4457881;32;20291;-56
2022/02/18 00:12:45;;;;;;;73.07;37.60;;;;;;;;;;4448336;32;20256;-57
2022/02/18 00:15:11;;;;;;;79.90;36.70;;;;;;;;;;4436230;32;20212;-57
2022/02/18 00:17:38;;;;;;;92.77;43.20;;;;;;;;;;4432680;32;20278;-57
2022/02/18 00:20:05;;;;;;;84.83;42.03;;;;;;;;;;4433307;32;20225;-57
2022/02/18 00:22:31;;;;;;;75.40;40.90;;;;;;;;;;4432477;32;20272;-57
2022/02/18 00:24:57;;;;;;;86.63;43.53;;;;;;;;;;4432691;32;20338;-57
2022/02/18 00:27:22;;;;;;;75.40;41.47;;;;;;;;;;4432839;32;20570;-57
2022/02/18 00:29:47;;;;;;;74.57;40.03;;;;;;;;;;4432661;32;20296;-58
2022/02/18 00:32:13;;;;;;;69.03;39.17;;;;;;;;;;4444234;32;20354;-57
2022/02/18 00:34:39;;;;;;;77.77;41.60;;;;;;;;;;4432868;32;20295;-57
2022/02/18 00:37:05;;;;;;;91.47;46.43;;;;;;;;;;4431228;32;20232;-56
2022/02/18 00:39:31;;;;;;;79.73;41.73;;;;;;;;;;4432839;32;20264;-57
2022/02/18 00:41:57;;;;;;;65.10;37.30;;;;;;;;;;4432659;32;20225;-57
2022/02/18 00:44:23;;;;;;;71.17;39.43;;;;;;;;;;4448036;32;20236;-57
2022/02/18 00:46:50;;;;;;;75.37;38.47;;;;;;;;;;4448127;32;20614;-57
2022/02/18 00:49:17;;;;;;;73.80;40.00;;;;;;;;;;4435916;32;20350;-57
2022/02/18 00:51:42;;;;;;;86.10;41.60;;;;;;;;;;4432570;32;20237;-57
2022/02/18 00:54:08;;;;;;;82.97;44.33;;;;;;;;;;4432783;32;20278;-56
2022/02/18 00:56:33;;;;;;;95.27;50.33;;;;;;;;;;4444041;32;20427;-57
2022/02/18 00:59:02;;;;;;;89.63;47.07;;;;;;;;;;4432434;32;20740;-57
2022/02/18 01:01:28;;;;;;;94.13;45.97;;;;;;;;;;4434093;32;20205;-57
2022/02/18 01:03:53;;;;;;;86.87;48.17;;;;;;;;;;4446918;32;20255;-57
2022/02/18 01:06:19;;;;;;;85.80;45.80;;;;;;;;;;4447852;32;20735;-56
2022/02/18 01:08:45;;;;;;;91.17;42.77;;;;;;;;;;4447935;32;20268;-57
2022/02/18 01:11:10;;;;;;;92.30;42.77;;;;;;;;;;4447352;32;20714;-57
2022/02/18 01:13:36;;;;;;;74.20;37.37;;;;;;;;;;4446146;32;20349;-56
2022/02/18 01:16:02;;;;;;;69.97;34.03;;;;;;;;;;4446552;32;20779;-57
2022/02/18 01:18:28;;;;;;;217.47;97.60;;;;;;;;;;4447521;32;20359;-57
2022/02/18 01:20:53;;;;;;;173.57;78.60;;;;;;;;;;4447687;32;20283;-57
2022/02/18 01:23:19;;;;;;;152.17;69.03;;;;;;;;;;4445806;32;20339;-57
2022/02/18 01:25:44;;;;;;;118.33;58.33;;;;;;;;;;4446102;32;20334;-58
2022/02/18 01:28:10;;;;;;;94.10;48.37;;;;;;;;;;4447706;32;20320;-57
2022/02/18 01:30:37;;;;;;;73.77;41.03;;;;;;;;;;4447309;32;20321;-57
2022/02/18 01:33:03;;;;;;;92.83;46.10;;;;;;;;;;4447544;32;20663;-57
2022/02/18 01:35:29;;;;;;;82.77;39.67;;;;;;;;;;4446744;32;20276;-57
2022/02/18 01:37:55;;;;;;;86.47;38.50;;;;;;;;;;4447402;32;20266;-57
2022/02/18 01:40:22;;;;;;;86.67;42.30;;;;;;;;;;4447195;32;20303;-56
2022/02/18 01:42:48;;;;;;;89.57;49.07;;;;;;;;;;4447410;32;20274;-56
2022/02/18 01:45:13;;;;;;;122.13;52.53;;;;;;;;;;4446096;32;20335;-57
2022/02/18 01:47:39;;;;;;;103.43;52.37;;;;;;;;;;4445819;32;20390;-57
2022/02/18 01:50:05;;;;;;;101.90;53.43;;;;;;;;;;4447679;32;20201;-56
2022/02/18 01:52:34;;;;;;;110.37;57.47;;;;;;;;;;4447539;32;20258;-56
2022/02/18 01:55:01;;;;;;;121.37;54.87;;;;;;;;;;4447352;32;20197;-56
2022/02/18 01:57:28;;;;;;;110.10;53.60;;;;;;;;;;4447199;32;20258;-56
2022/02/18 01:59:53;;;;;;;88.97;47.93;;;;;;;;;;4447578;32;20643;-57
2022/02/18 02:02:19;;;;;;;101.83;51.43;;;;;;;;;;4447039;32;20200;-58
2022/02/18 02:04:45;;;;;;;109.73;50.40;;;;;;;;;;4445919;32;20341;-58
2022/02/18 02:07:11;;;;;;;89.97;48.07;;;;;;;;;;4445925;32;20229;-57
2022/02/18 02:09:37;;;;;;;98.93;52.07;;;;;;;;;;4446837;32;20275;-56
2022/02/18 02:12:04;;;;;;;103.07;48.93;;;;;;;;;;4446837;32;20204;-57
2022/02/18 02:14:30;;;;;;;84.37;39.87;;;;;;;;;;4447099;32;20318;-56
2022/02/18 02:16:56;;;;;;;71.90;33.13;;;;;;;;;;4447062;32;20271;-56
2022/02/18 02:19:21;;;;;;;48.00;25.23;;;;;;;;;;4439622;32;20719;-57
2022/02/18 02:21:52;;;;;;;47.80;23.90;;;;;;;;;;4445615;32;20266;-56
2022/02/18 02:24:18;;;;;;;42.23;23.43;;;;;;;;;;4431624;32;20260;-57
2022/02/18 02:26:43;;;;;;;33.43;19.53;;;;;;;;;;4431444;32;20228;-56
2022/02/18 02:29:13;;;;;;;44.57;21.07;;;;;;;;;;4431753;32;20240;-56
2022/02/18 02:31:40;;;;;;;38.40;20.63;;;;;;;;;;4431649;32;20393;-56
2022/02/18 02:34:06;;;;;;;42.50;21.97;;;;;;;;;;4431760;32;20304;-57
2022/02/18 02:36:32;;;;;;;43.00;24.83;;;;;;;;;;4442119;32;20605;-56
2022/02/18 02:38:58;;;;;;;40.93;21.83;;;;;;;;;;4446849;32;20316;-56
2022/02/18 02:41:23;;;;;;;39.53;24.73;;;;;;;;;;4446703;32;20402;-57
2022/02/18 02:43:49;;;;;;;45.70;23.27;;;;;;;;;;4447069;32;20221;-56
2022/02/18 02:46:15;;;;;;;41.50;23.83;;;;;;;;;;4446876;32;20334;-56
2022/02/18 02:48:41;;;;;;;57.10;26.60;;;;;;;;;;4448387;32;20256;-57
2022/02/18 02:51:08;;;;;;;52.90;27.03;;;;;;;;;;4448599;32;20295;-57
2022/02/18 02:53:34;;;;;;;64.73;30.20;;;;;;;;;;4449414;32;20321;-56
2022/02/18 02:56:00;;;;;;;70.60;31.63;;;;;;;;;;4450075;32;20362;-57
2022/02/18 02:58:25;;;;;;;80.17;34.13;;;;;;;;;;4448546;32;20326;-57
2022/02/18 03:00:51;;;;;;;68.90;34.33;;;;;;;;;;4449840;32;20271;-57
2022/02/18 03:03:17;;;;;;;61.47;32.50;;;;;;;;;;4449552;32;20223;-57
2022/02/18 03:05:43;;;;;;;56.17;31.67;;;;;;;;;;4448658;32;20341;-57
2022/02/18 03:08:08;;;;;;;63.67;33.17;;;;;;;;;;4449556;32;20572;-56
2022/02/18 03:10:34;;;;;;;58.07;29.57;;;;;;;;;;4446454;32;20440;-57
2022/02/18 03:13:01;;;;;;;44.87;22.97;;;;;;;;;;4449547;32;20378;-57
2022/02/18 03:15:26;;;;;;;17.80;10.37;;;;;;;;;;4441218;32;20288;-57
2022/02/18 03:17:52;;;;;;;11.50;7.57;;;;;;;;;;4449617;32;20596;-58
2022/02/18 03:20:17;;;;;;;12.87;6.83;;;;;;;;;;4448163;32;20343;-57
2022/02/18 03:22:43;;;;;;;15.70;6.70;;;;;;;;;;4441323;32;20320;-57
2022/02/18 03:25:09;;;;;;;10.67;5.97;;;;;;;;;;4434067;32;20290;-59
2022/02/18 03:27:36;;;;;;;9.87;6.57;;;;;;;;;;4433740;32;20636;-56
2022/02/18 03:30:02;;;;;;;14.27;8.37;;;;;;;;;;4432923;32;20276;-58
2022/02/18 03:32:27;;;;;;;14.33;6.87;;;;;;;;;;4434000;32;20257;-57
2022/02/18 03:34:53;;;;;;;15.93;7.10;;;;;;;;;;4434127;32;20656;-56
2022/02/18 03:37:18;;;;;;;19.47;8.00;;;;;;;;;;4449743;32;20205;-56
2022/02/18 03:39:44;;;;;;;9.77;6.70;;;;;;;;;;4448094;32;20315;-57
2022/02/18 03:42:09;;;;;;;10.63;7.60;;;;;;;;;;4437155;32;20690;-56
2022/02/18 03:44:35;;;;;;;12.83;7.93;;;;;;;;;;4449602;32;20275;-57
2022/02/18 03:47:01;;;;;;;12.67;7.00;;;;;;;;;;4449153;32;20265;-57
2022/02/18 03:49:27;;;;;;;11.53;7.40;;;;;;;;;;4448892;32;20240;-58
2022/02/18 03:51:52;;;;;;;8.97;6.20;;;;;;;;;;4449402;32;20242;-56
2022/02/18 03:54:18;;;;;;;14.57;5.77;;;;;;;;;;4447810;32;20241;-56
2022/02/18 03:56:43;;;;;;;6.13;4.80;;;;;;;;;;4448849;32;20700;-56
2022/02/18 03:59:09;;;;;;;7.73;5.57;;;;;;;;;;4448796;32;20302;-56
2022/02/18 04:01:34;;;;;;;10.63;6.13;;;;;;;;;;4448951;32;20551;-57
2022/02/18 04:04:00;;;;;;;8.67;5.40;;;;;;;;;;4448774;32;20399;-58
2022/02/18 04:06:25;;;;;;;9.23;5.63;;;;;;;;;;4447732;32;20339;-57
2022/02/18 04:08:51;;;;;;;10.03;5.93;;;;;;;;;;4448805;32;20362;-57
2022/02/18 04:11:17;;;;;;;9.53;6.03;;;;;;;;;;4448322;32;20674;-56
2022/02/18 04:13:42;;;;;;;7.30;5.03;;;;;;;;;;4448721;32;20255;-57
2022/02/18 04:16:07;;;;;;;9.20;5.20;;;;;;;;;;4447692;32;20295;-57
2022/02/18 04:18:33;;;;;;;7.53;4.53;;;;;;;;;;4448635;32;20285;-57
2022/02/18 04:20:58;;;;;;;7.83;3.60;;;;;;;;;;4448656;32;20391;-57
2022/02/18 04:23:24;;;;;;;7.17;4.10;;;;;;;;;;4436286;32;20313;-58
2022/02/18 04:25:49;;;;;;;7.70;4.10;;;;;;;;;;4433314;32;20297;-57
2022/02/18 04:28:17;;;;;;;9.47;4.50;;;;;;;;;;4433110;32;20224;-57
2022/02/18 04:30:43;;;;;;;5.97;3.97;;;;;;;;;;4432739;32;20296;-57
2022/02/18 04:33:08;;;;;;;5.07;3.17;;;;;;;;;;4432878;32;20267;-56
2022/02/18 04:35:34;;;;;;;7.67;4.00;;;;;;;;;;4437148;32;20318;-57
2022/02/18 04:38:00;;;;;;;5.60;2.90;;;;;;;;;;4448301;32;20317;-56
2022/02/18 04:40:26;;;;;;;6.13;3.73;;;;;;;;;;4448259;32;20362;-56
2022/02/18 04:42:51;;;;;;;6.33;3.60;;;;;;;;;;4448105;32;20251;-57
2022/02/18 04:45:17;;;;;;;7.17;4.40;;;;;;;;;;4447076;32;20742;-56
2022/02/18 04:47:42;;;;;;;3.47;2.27;;;;;;;;;;4448249;32;20243;-57
2022/02/18 04:50:08;;;;;;;4.07;2.93;;;;;;;;;;4446728;32;20236;-57
2022/02/18 04:52:34;;;;;;;8.47;4.70;;;;;;;;;;4448059;32;20276;-57
2022/02/18 04:55:01;;;;;;;5.43;3.93;;;;;;;;;;4446769;32;20299;-56
2022/02/18 04:57:26;;;;;;;6.27;4.40;;;;;;;;;;4447665;32;20356;-56
2022/02/18 04:59:52;;;;;;;6.53;3.73;;;;;;;;;;4448440;32;20290;-58
2022/02/18 05:02:17;;;;;;;7.63;4.20;;;;;;;;;;4447777;32;20212;-57
2022/02/18 05:04:43;;;;;;;4.80;2.10;;;;;;;;;;4447463;32;20675;-56
2022/02/18 05:07:09;;;;;;;5.60;2.97;;;;;;;;;;4447722;32;20327;-56
2022/02/18 05:09:34;;;;;;;7.67;4.30;;;;;;;;;;4446755;32;20240;-56
2022/02/18 05:11:59;;;;;;;5.20;3.50;;;;;;;;;;4446936;32;20200;-56
2022/02/18 05:14:25;;;;;;;5.20;3.67;;;;;;;;;;4447601;32;20620;-57
2022/02/18 05:16:51;;;;;;;3.83;3.30;;;;;;;;;;4447637;32;20196;-57
2022/02/18 05:19:16;;;;;;;7.07;3.50;;;;;;;;;;4446047;32;20308;-57
2022/02/18 05:21:42;;;;;;;4.30;2.67;;;;;;;;;;4446817;32;20288;-57
2022/02/18 05:24:08;;;;;;;2.83;2.13;;;;;;;;;;4431904;32;20247;-57
2022/02/18 05:26:35;;;;;;;9.57;5.20;;;;;;;;;;4430642;32;20370;-59
2022/02/18 05:29:01;;;;;;;7.20;3.83;;;;;;;;;;4431766;32;20316;-58
2022/02/18 05:31:27;;;;;;;9.10;4.00;;;;;;;;;;4431245;32;20752;-58
2022/02/18 05:33:52;;;;;;;7.13;5.17;;;;;;;;;;4431606;32;20671;-56
2022/02/18 05:36:18;;;;;;;7.57;4.83;;;;;;;;;;4440902;32;20291;-56
2022/02/18 05:38:45;;;;;;;8.87;5.47;;;;;;;;;;4446463;32;20296;-56
2022/02/18 05:41:11;;;;;;;14.23;4.60;;;;;;;;;;4430330;32;20259;-58
2022/02/18 05:43:36;;;;;;;14.60;5.80;;;;;;;;;;4448594;32;20209;-56
2022/02/18 05:46:02;;;;;;;15.10;8.90;;;;;;;;;;4432934;32;20307;-58
2022/02/18 05:48:27;;;;;;;17.30;9.70;;;;;;;;;;4446176;32;20682;-57
2022/02/18 05:50:53;;;;;;;17.43;9.23;;;;;;;;;;4447136;32;20284;-57
2022/02/18 05:53:19;;;;;;;23.53;9.40;;;;;;;;;;4433024;32;20343;-56
2022/02/18 05:55:45;;;;;;;7.57;4.90;;;;;;;;;;4446662;32;20593;-57
2022/02/18 05:58:10;;;;;;;6.00;3.03;;;;;;;;;;4446659;32;20268;-57
2022/02/18 06:00:36;;;;;;;5.30;3.03;;;;;;;;;;4447371;32;20391;-57
2022/02/18 06:03:01;;;;;;;6.23;3.37;;;;;;;;;;4446278;32;20717;-58
2022/02/18 06:05:26;;;;;;;9.83;2.57;;;;;;;;;;4446619;32;20256;-56
2022/02/18 06:07:52;;;;;;;4.67;3.40;;;;;;;;;;4446091;32;20236;-57
2022/02/18 06:10:17;;;;;;;10.70;4.83;;;;;;;;;;4445721;32;20328;-57
2022/02/18 06:12:43;;;;;;;10.50;6.37;;;;;;;;;;4440799;32;20552;-56
2022/02/18 06:15:08;;;;;;;10.97;3.33;;;;;;;;;;4431317;32;20715;-57
2022/02/18 06:17:37;;;;;;;5.23;3.83;;;;;;;;;;4431560;32;20314;-57
2022/02/18 06:20:03;;;;;;;2.53;1.80;;;;;;;;;;4422146;32;20292;-57
2022/02/18 06:22:29;;;;;;;4.20;2.53;;;;;;;;;;4448347;32;20193;-57
2022/02/18 06:24:54;;;;;;;7.67;3.13;;;;;;;;;;4450558;32;20361;-57
2022/02/18 06:27:20;;;;;;;5.47;3.47;;;;;;;;;;4433848;32;20225;-58
2022/02/18 06:29:49;;;;;;;9.80;4.47;;;;;;;;;;4433128;32;20327;-58
2022/02/18 06:32:14;;;;;;;13.87;5.17;;;;;;;;;;4434202;32;20298;-58
2022/02/18 06:34:40;;;;;;;18.20;7.53;;;;;;;;;;4434665;32;20295;-56
2022/02/18 06:37:06;;;;;;;8.37;4.40;;;;;;;;;;4434366;32;20424;-58
2022/02/18 06:39:35;;;;;;;7.40;4.30;;;;;;;;;;4449868;32;20267;-57
2022/02/18 06:42:01;;;;;;;9.63;4.50;;;;;;;;;;4436097;32;20292;-57
2022/02/18 06:44:26;;;;;;;5.30;3.50;;;;;;;;;;4450378;32;20268;-57
2022/02/18 06:46:52;;;;;;;5.03;3.60;;;;;;;;;;4432348;32;20225;-57
2022/02/18 06:49:17;;;;;;;4.10;2.70;;;;;;;;;;4443474;32;20755;-56
2022/02/18 06:51:43;;;;;;;8.60;3.33;;;;;;;;;;4446541;32;20370;-58
2022/02/18 06:54:08;;;;;;;8.60;4.60;;;;;;;;;;4447714;32;20265;-57
2022/02/18 06:56:34;;;;;;;9.50;5.23;;;;;;;;;;4447670;32;20228;-56
2022/02/18 06:58:59;;;;;;;14.17;5.53;;;;;;;;;;4448049;32;20370;-57
2022/02/18 07:01:25;;;;;;;12.73;5.67;;;;;;;;;;4447989;32;20433;-56
2022/02/18 07:03:50;;;;;;;10.90;5.40;;;;;;;;;;4448930;32;20684;-57
2022/02/18 07:06:16;;;;;;;8.53;3.30;;;;;;;;;;4449018;32;20672;-57
2022/02/18 07:08:41;;;;;;;7.17;4.30;;;;;;;;;;4448884;32;20684;-57
2022/02/18 07:11:07;;;;;;;30.53;8.07;;;;;;;;;;4447888;32;20264;-57
2022/02/18 07:13:32;;;;;;;14.37;7.97;;;;;;;;;;4447246;32;20248;-59
2022/02/18 07:15:58;;;;;;;13.87;9.00;;;;;;;;;;4447856;32;20302;-57
2022/02/18 07:18:23;;;;;;;11.57;6.63;;;;;;;;;;4447314;32;20224;-57
2022/02/18 07:20:49;;;;;;;10.57;6.77;;;;;;;;;;4450503;32;20678;-56
2022/02/18 07:23:15;;;;;;;4.27;2.30;;;;;;;;;;4447040;32;20247;-56
2022/02/18 07:25:41;;;;;;;3.33;1.50;;;;;;;;;;4447520;32;20719;-56
2022/02/18 07:28:06;;;;;;;4.97;2.00;;;;;;;;;;4449221;32;20300;-56
2022/02/18 07:30:31;;;;;;;6.80;3.27;;;;;;;;;;4449293;32;20363;-55
2022/02/18 07:32:57;;;;;;;8.17;3.67;;;;;;;;;;4449001;32;20217;-55
2022/02/18 07:35:24;;;;;;;4.67;3.60;;;;;;;;;;4448652;32;20705;-58
2022/02/18 07:37:49;;;;;;;15.50;8.70;;;;;;;;;;4433932;32;20249;-56
2022/02/18 07:40:16;;;;;;;9.53;4.63;;;;;;;;;;4447974;32;20331;-57
2022/02/18 07:42:43;;;;;;;8.23;3.73;;;;;;;;;;4448780;32;20522;-56
2022/02/18 07:45:10;;;;;;;5.77;3.17;;;;;;;;;;4448727;32;20273;-55
2022/02/18 07:47:36;;;;;;;9.90;4.30;;;;;;;;;;4446979;32;20291;-55
2022/02/18 07:50:04;;;;;;;9.50;5.37;;;;;;;;;;4445864;32;20270;-55
2022/02/18 07:52:29;;;;;;;5.70;3.00;;;;;;;;;;4446046;32;20251;-55
2022/02/18 07:54:56;;;;;;;7.00;3.03;;;;;;;;;;4446741;32;20370;-55
2022/02/18 07:57:23;;;;;;;8.23;3.87;;;;;;;;;;4445872;32;20665;-56
2022/02/18 07:59:48;;;;;;;16.63;6.30;;;;;;;;;;4446456;32;20223;-56
2022/02/18 08:02:15;;;;;;;4.67;2.47;;;;;;;;;;4446620;32;20588;-56
2022/02/18 08:04:40;;;;;;;40.60;5.03;;;;;;;;;;4446220;32;20796;-57
2022/02/18 08:07:06;;;;;;;11.83;2.70;;;;;;;;;;4446388;32;20367;-56
2022/02/18 08:09:33;;;;;;;6.20;2.63;;;;;;;;;;4446776;32;20665;-56
2022/02/18 08:11:59;;;;;;;6.00;3.00;;;;;;;;;;4432461;32;20560;-57
2022/02/18 08:14:25;;;;;;;6.23;2.40;;;;;;;;;;4447434;32;20264;-57
2022/02/18 08:16:50;;;;;;;6.00;3.17;;;;;;;;;;4426380;32;20240;-57
2022/02/18 08:19:20;;;;;;;12.53;6.37;;;;;;;;;;4446303;32;20307;-57
2022/02/18 08:21:47;;;;;;;14.60;6.93;;;;;;;;;;4447531;32;20232;-58
2022/02/18 08:24:17;;;;;;;9.53;4.37;;;;;;;;;;4433116;32;20319;-57
2022/02/18 08:26:45;;;;;;;3.63;2.30;;;;;;;;;;4419273;32;20684;-56
2022/02/18 08:29:10;;;;;;;5.97;4.80;;;;;;;;;;4433982;32;20317;-57
2022/02/18 08:31:36;;;;;;;17.23;8.50;;;;;;;;;;4448300;32;20232;-57
2022/02/18 08:34:03;;;;;;;3.93;2.70;;;;;;;;;;4434066;32;20236;-57
2022/02/18 08:36:28;;;;;;;9.70;4.50;;;;;;;;;;4447846;32;20225;-57
2022/02/18 08:38:54;;;;;;;15.03;5.90;;;;;;;;;;4447065;32;20575;-55
2022/02/18 08:41:19;;;;;;;9.40;6.17;;;;;;;;;;4432816;32;20609;-56
2022/02/18 08:43:45;;;;;;;11.50;6.00;;;;;;;;;;4447789;32;20284;-56
2022/02/18 08:46:10;;;;;;;5.63;2.00;;;;;;;;;;4447532;32;20356;-56
2022/02/18 08:48:36;;;;;;;3.93;2.17;;;;;;;;;;4447267;32;20368;-57
2022/02/18 08:51:01;;;;;;;2.73;1.60;;;;;;;;;;4433543;32;20368;-57
2022/02/18 08:53:27;;;;;;;3.73;1.20;;;;;;;;;;4447663;32;20268;-56
2022/02/18 08:55:53;;;;;;;3.40;2.83;;;;;;;;;;4447918;32;20683;-57
2022/02/18 08:58:18;;;;;;;7.13;3.53;;;;;;;;;;4433705;32;20244;-55
2022/02/18 09:00:44;;;;;;;5.00;2.63;;;;;;;;;;4433347;32;20304;-56
2022/02/18 09:03:10;;;;;;;8.67;3.90;;;;;;;;;;4447430;32;20568;-56
2022/02/18 09:05:36;;;;;;;6.90;3.93;;;;;;;;;;4447407;32;20359;-55
2022/02/18 09:08:01;;;;;;;5.53;2.67;;;;;;;;;;4447568;32;20335;-55
2022/02/18 09:10:27;;;;;;;13.83;5.13;;;;;;;;;;4447310;32;20291;-55
2022/02/18 09:12:52;;;;;;;7.33;2.83;;;;;;;;;;4440549;32;20381;-55
2022/02/18 09:15:19;;;;;;;4.00;1.63;;;;;;;;;;4418081;32;20368;-55
2022/02/18 09:17:45;;;;;;;4.27;2.33;;;;;;;;;;4418364;32;20359;-55
2022/02/18 09:20:10;;;;;;;1.07;1.00;;;;;;;;;;4446506;32;20287;-56
2022/02/18 09:22:37;;;;;;;3.73;1.80;;;;;;;;;;4433613;32;20383;-55
2022/02/18 09:25:03;;;;;;;2.73;1.93;;;;;;;;;;4447372;32;20267;-56
2022/02/18 09:27:29;;;;;;;4.57;2.63;;;;;;;;;;4447405;32;20260;-56
2022/02/18 09:29:56;;;;;;;7.47;2.17;;;;;;;;;;4447315;32;20325;-55
2022/02/18 09:32:22;;;;;;;4.53;1.67;;;;;;;;;;4446597;32;20625;-55
2022/02/18 09:34:47;;;;;;;9.73;2.03;;;;;;;;;;4433424;32;20415;-56
2022/02/18 09:37:16;;;;;;;5.30;2.17;;;;;;;;;;4447083;32;20304;-56
2022/02/18 09:39:43;;;;;;;2.53;2.00;;;;;;;;;;4433084;32;20255;-55
2022/02/18 09:42:13;;;;;;;4.93;2.17;;;;;;;;;;4447311;32;20260;-55
2022/02/18 09:44:41;;;;;;;5.23;2.20;;;;;;;;;;4447051;32;20257;-55
2022/02/18 09:47:08;;;;;;;4.60;2.47;;;;;;;;;;4447541;32;20224;-54
2022/02/18 09:49:34;;;;;;;5.17;2.63;;;;;;;;;;4446884;32;20308;-55
2022/02/18 09:52:01;;;;;;;10.83;1.93;;;;;;;;;;4447043;32;20209;-56
2022/02/18 09:54:27;;;;;;;2.23;1.47;;;;;;;;;;4445964;32;20376;-55
2022/02/18 09:56:53;;;;;;;3.23;1.83;;;;;;;;;;4445449;32;20248;-56
2022/02/18 09:59:19;;;;;;;4.53;2.20;;;;;;;;;;4447371;32;20298;-55
2022/02/18 10:01:45;;;;;;;1.93;1.20;;;;;;;;;;4447320;32;20509;-56
2022/02/18 10:04:10;;;;;;;7.60;1.10;;;;;;;;;;4445945;32;20391;-56
2022/02/18 10:06:38;;;;;;;1.43;1.13;;;;;;;;;;4445753;32;20339;-56
2022/02/18 10:09:04;;;;;;;4.63;1.20;;;;;;;;;;4446755;32;20293;-56
2022/02/18 10:11:49;;;;;;;4.13;1.67;;;;;;;;;;4447097;32;20299;-56
2022/02/18 10:14:14;;;;;;;1.97;1.13;;;;;;;;;;4447372;32;20260;-56
2022/02/18 10:16:40;;;;;;;4.53;1.30;;;;;;;;;;4447087;32;20569;-56
2022/02/18 10:19:10;;;;;;;4.10;2.13;;;;;;;;;;4445657;32;20311;-56
2022/02/18 10:21:37;;;;;;;4.50;1.70;;;;;;;;;;4445063;32;20614;-56
2022/02/18 10:24:05;;;;;;;9.03;2.30;;;;;;;;;;4445650;32;20333;-56
2022/02/18 10:26:37;;;;;;;6.50;3.17;;;;;;;;;;4445319;32;20295;-57
2022/02/18 10:29:04;;;;;;;5.90;1.97;;;;;;;;;;4445054;32;20346;-56
2022/02/18 10:31:29;;;;;;;1.30;1.20;;;;;;;;;;4445285;32;20278;-56
2022/02/18 10:34:09;;;;;;;9.87;2.57;;;;;;;;;;4445494;32;20236;-55
2022/02/18 10:36:45;;;;;;;2.40;1.47;;;;;;;;;;4445580;32;20836;-56
2022/02/18 10:39:26;;;;;;;2.30;1.57;;;;;;;;;;4445445;32;20220;-55
2022/02/18 10:42:00;;;;;;;5.17;1.90;;;;;;;;;;4445552;32;20244;-55
2022/02/18 10:44:33;;;;;;;2.43;1.47;;;;;;;;;;4445777;32;20372;-56
2022/02/18 10:47:05;;;;;;;10.33;1.80;;;;;;;;;;4445672;32;20246;-56
2022/02/18 10:49:33;;;;;;;1.73;1.30;;;;;;;;;;4443477;32;20324;-56
2022/02/18 10:52:17;;;;;;;3.77;1.40;;;;;;;;;;4443109;32;20224;-56
2022/02/18 10:54:47;;;;;;;2.77;1.90;;;;;;;;;;4445192;32;20346;-58
2022/02/18 10:57:17;;;;;;;2.83;1.53;;;;;;;;;;4445384;32;20288;-57
2022/02/18 10:59:44;;;;;;;9.10;1.53;;;;;;;;;;4445270;32;20232;-57
2022/02/18 11:02:09;;;;;;;5.57;1.90;;;;;;;;;;4445085;32;20244;-57
2022/02/18 11:04:35;;;;;;;5.27;1.90;;;;;;;;;;4445476;32;20236;-57
2022/02/18 11:07:15;;;;;;;2.63;1.60;;;;;;;;;;4431574;32;20543;-58
2022/02/18 11:09:46;;;;;;;9.70;2.00;;;;;;;;;;4434747;32;20688;-57
2022/02/18 11:12:12;;;;;;;6.30;1.97;;;;;;;;;;4435375;32;20279;-57
2022/02/18 11:14:48;;;;;;;5.60;2.10;;;;;;;;;;4449798;32;20237;-58
2022/02/18 11:17:14;;;;;;;6.50;3.23;;;;;;;;;;4449785;32;20451;-57
2022/02/18 11:19:44;;;;;;;4.63;1.27;;;;;;;;;;4447541;32;20377;-57
2022/02/18 11:22:09;;;;;;;10.60;3.63;;;;;;;;;;4432635;32;20250;-56
2022/02/18 11:24:38;;;;;;;14.53;3.00;;;;;;;;;;4433419;32;20260;-56
2022/02/18 11:27:04;;;;;;;2.83;1.97;;;;;;;;;;4433953;32;20225;-56
2022/02/18 11:29:35;;;;;;;4.87;2.23;;;;;;;;;;4433854;32;20253;-56
2022/02/18 11:32:06;;;;;;;1.67;1.20;;;;;;;;;;4432602;32;20223;-57
2022/02/18 11:35:07;;;;;;;4.40;2.03;;;;;;;;;;4434090;32;20229;-56
2022/02/18 11:37:57;;;;;;;8.10;1.83;;;;;;;;;;4433110;32;20282;-57
2022/02/18 11:40:40;;;;;;;2.83;2.03;;;;;;;;;;4434013;32;20220;-57
2022/02/18 11:43:17;;;;;;;4.23;2.57;;;;;;;;;;4445204;32;20273;-57
2022/02/18 11:45:43;;;;;;;13.23;4.20;;;;;;;;;;4434206;32;20586;-57
2022/02/18 11:48:39;;;;;;;22.00;9.13;;;;;;;;;;4432373;32;20292;-57
2022/02/18 11:51:08;;;;;;;4.47;2.37;;;;;;;;;;4448880;32;20236;-56
2022/02/18 11:53:51;;;;;;;3.90;1.73;;;;;;;;;;4449053;32;20267;-57
2022/02/18 11:56:40;;;;;;;9.80;2.57;;;;;;;;;;4448684;32;20283;-57
2022/02/18 11:59:06;;;;;;;16.40;4.63;;;;;;;;;;4448343;32;20268;-57
2022/02/18 12:02:03;;;;;;;7.20;3.10;;;;;;;;;;4441651;32;20346;-57
2022/02/18 12:04:29;;;;;;;2.90;1.40;;;;;;;;;;4426510;32;20274;-57
2022/02/18 12:07:13;;;;;;;20.87;8.67;;;;;;;;;;4433497;32;20247;-58
2022/02/18 12:09:48;;;;;;;6.27;2.23;;;;;;;;;;4433559;32;20236;-58
2022/02/18 12:12:32;;;;;;;3.10;1.60;;;;;;;;;;4434751;32;20275;-56
2022/02/18 12:15:24;;;;;;;4.53;3.03;;;;;;;;;;4448397;32;20418;-57
2022/02/18 12:17:54;;;;;;;3.00;1.63;;;;;;;;;;4448438;32;20252;-57
2022/02/18 12:20:28;;;;;;;4.07;2.53;;;;;;;;;;4447138;32;20263;-57
2022/02/18 12:22:55;;;;;;;4.57;2.03;;;;;;;;;;4447325;32;20287;-58
2022/02/18 12:25:27;;;;;;;9.40;3.77;;;;;;;;;;4447083;32;20228;-57
2022/02/18 12:27:55;;;;;;;2.50;1.57;;;;;;;;;;4448826;32;20220;-57
2022/02/18 12:30:23;;;;;;;6.77;2.27;;;;;;;;;;4448343;32;20271;-57
2022/02/18 12:32:50;;;;;;;4.53;1.87;;;;;;;;;;4448413;32;20282;-57
2022/02/18 12:35:18;;;;;;;13.20;3.43;;;;;;;;;;4447397;32;20240;-57
2022/02/18 12:37:44;;;;;;;3.93;2.03;;;;;;;;;;4447445;32;20332;-57
2022/02/18 12:40:15;;;;;;;8.57;2.00;;;;;;;;;;4448148;32;20303;-57
2022/02/18 12:42:42;;;;;;;2.00;1.00;;;;;;;;;;4447508;32;20232;-56
2022/02/18 12:45:09;;;;;;;4.33;2.13;;;;;;;;;;4447649;32;20240;-59
2022/02/18 12:47:38;;;;;;;5.60;2.37;;;;;;;;;;4446983;32;20664;-57
2022/02/18 12:50:12;;;;;;;5.57;2.07;;;;;;;;;;4448102;32;20639;-56
2022/02/18 12:52:40;;;;;;;5.40;2.80;;;;;;;;;;4448418;32;20212;-55
2022/02/18 12:55:11;;;;;;;11.27;4.90;;;;;;;;;;4448354;32;20302;-56
2022/02/18 12:57:39;;;;;;;3.10;1.87;;;;;;;;;;4447654;32;20817;-56
2022/02/18 13:00:09;;;;;;;10.00;5.40;;;;;;;;;;4448305;32;20385;-57
2022/02/18 13:02:56;;;;;;;13.40;3.50;;;;;;;;;;4447186;32;20785;-57
2022/02/18 13:05:32;;;;;;;6.37;3.10;;;;;;;;;;4447699;32;20613;-57
2022/02/18 13:08:04;;;;;;;4.67;2.77;;;;;;;;;;4447851;32;20257;-57
2022/02/18 13:10:37;;;;;;;2.40;1.93;;;;;;;;;;4446474;32;20711;-56
2022/02/18 13:13:11;;;;;;;6.97;4.87;;;;;;;;;;4447701;32;20262;-56
2022/02/18 13:15:39;;;;;;;2.73;1.87;;;;;;;;;;4447927;32;20357;-57
2022/02/18 13:18:06;;;;;;;5.73;2.93;;;;;;;;;;4446240;32;20308;-58
2022/02/18 13:20:40;;;;;;;5.50;3.03;;;;;;;;;;4440191;32;20261;-58
2022/02/18 13:23:23;;;;;;;5.27;2.03;;;;;;;;;;4432303;32;20319;-57
2022/02/18 13:25:51;;;;;;;6.13;3.03;;;;;;;;;;4431501;32;20518;-58
2022/02/18 13:28:23;;;;;;;6.73;3.03;;;;;;;;;;4431500;32;20241;-57
2022/02/18 13:30:50;;;;;;;11.77;4.00;;;;;;;;;;4432014;32;20212;-57
2022/02/18 13:33:27;;;;;;;5.23;2.63;;;;;;;;;;4430460;32;20544;-57
2022/02/18 13:36:05;;;;;;;15.93;6.93;;;;;;;;;;4431202;32;20659;-55
2022/02/18 13:38:34;;;;;;;9.47;3.57;;;;;;;;;;4429771;32;20276;-57
2022/02/18 13:41:06;;;;;;;8.33;3.83;;;;;;;;;;4431820;32;20205;-56
2022/02/18 13:43:32;;;;;;;7.90;2.50;;;;;;;;;;4432049;32;20256;-57
2022/02/18 13:45:59;;;;;;;10.20;4.40;;;;;;;;;;4432163;32;20205;-57
2022/02/18 13:48:25;;;;;;;9.20;3.23;;;;;;;;;;4430357;32;20313;-56
2022/02/18 13:50:51;;;;;;;12.20;5.50;;;;;;;;;;4447197;32;20270;-57
2022/02/18 13:53:17;;;;;;;10.43;4.53;;;;;;;;;;4447028;32;20252;-57
2022/02/18 13:55:42;;;;;;;9.83;4.73;;;;;;;;;;4447129;32;20279;-57
2022/02/18 13:58:26;;;;;;;8.00;3.27;;;;;;;;;;4447251;32;20292;-57
2022/02/18 14:00:52;;;;;;;4.47;2.53;;;;;;;;;;4447255;32;20253;-57
2022/02/18 14:03:18;;;;;;;4.00;2.23;;;;;;;;;;4447157;32;20672;-57
2022/02/18 14:05:45;;;;;;;3.90;2.27;;;;;;;;;;4447476;32;20353;-57
2022/02/18 14:08:17;;;;;;;4.83;1.57;;;;;;;;;;4447284;32;20675;-57
2022/02/18 14:10:50;;;;;;;5.87;2.00;;;;;;;;;;4447296;32;20244;-58
2022/02/18 14:13:31;;;;;;;2.50;1.80;;;;;;;;;;4447434;32;20258;-56
2022/02/18 14:16:13;;;;;;;8.60;2.40;;;;;;;;;;4446956;32;20313;-55
2022/02/18 14:19:01;;;;;;;4.43;2.30;;;;;;;;;;4446708;32;20283;-57
2022/02/18 14:21:32;;;;;;;2.33;1.93;;;;;;;;;;4444751;32;20951;-56
2022/02/18 14:24:01;;;;;;;2.90;1.40;;;;;;;;;;4447412;32;20224;-55
2022/02/18 14:26:28;;;;;;;2.77;1.20;;;;;;;;;;4447216;32;20330;-56
2022/02/18 14:28:55;;;;;;;4.87;1.77;;;;;;;;;;4445932;32;20638;-57
2022/02/18 14:31:30;;;;;;;3.70;1.57;;;;;;;;;;4447202;32;20624;-56
2022/02/18 14:34:02;;;;;;;9.53;2.53;;;;;;;;;;4446115;32;20295;-56
2022/02/18 14:36:29;;;;;;;3.60;1.90;;;;;;;;;;4447734;32;20298;-57